sensor_id;sensor_type;location;lat;lon;timestamp;temperature;humidity
78315;SHT31;68596;52.080;4.662;2024-01-30T00:00:00;9.91;76.98
78315;SHT31;68596;52.080;4.662;2024-01-30T00:02:44;9.88;76.98
78315;SHT31;68596;52.080;4.662;2024-01-30T00:05:29;9.95;77.01
78315;SHT31;68596;52.080;4.662;2024-01-30T00:08:13;9.94;77.04
78315;SHT31;68596;52.080;4.662;2024-01-30T00:10:57;9.94;77.06
78315;SHT31;68596;52.080;4.662;2024-01-30T00:13:41;9.92;77.09
78315;SHT31;68596;52.080;4.662;2024-01-30T00:16:26;9.90;77.19
78315;SHT31;68596;52.080;4.662;2024-01-30T00:19:11;9.94;77.21
78315;SHT31;68596;52.080;4.662;2024-01-30T00:21:56;9.94;77.20
78315;SHT31;68596;52.080;4.662;2024-01-30T00:24:41;9.95;77.18
78315;SHT31;68596;52.080;4.662;2024-01-30T00:27:25;9.97;77.11
78315;SHT31;68596;52.080;4.662;2024-01-30T00:30:11;9.98;77.11
78315;SHT31;68596;52.080;4.662;2024-01-30T00:32:55;9.97;77.09
78315;SHT31;68596;52.080;4.662;2024-01-30T00:35:41;9.98;77.01
78315;SHT31;68596;52.080;4.662;2024-01-30T00:38:25;9.99;76.95
78315;SHT31;68596;52.080;4.662;2024-01-30T00:41:09;9.99;76.92
78315;SHT31;68596;52.080;4.662;2024-01-30T00:43:53;10.01;77.02
78315;SHT31;68596;52.080;4.662;2024-01-30T00:46:37;9.99;77.01
78315;SHT31;68596;52.080;4.662;2024-01-30T00:49:21;10.02;76.98
78315;SHT31;68596;52.080;4.662;2024-01-30T00:52:06;10.05;76.88
78315;SHT31;68596;52.080;4.662;2024-01-30T00:54:50;10.03;76.95
78315;SHT31;68596;52.080;4.662;2024-01-30T00:57:34;10.03;76.99
78315;SHT31;68596;52.080;4.662;2024-01-30T01:00:18;10.02;76.90
78315;SHT31;68596;52.080;4.662;2024-01-30T01:03:04;10.03;76.91
78315;SHT31;68596;52.080;4.662;2024-01-30T01:05:48;10.03;76.89
78315;SHT31;68596;52.080;4.662;2024-01-30T01:08:32;10.03;76.95
78315;SHT31;68596;52.080;4.662;2024-01-30T01:11:16;10.06;76.79
78315;SHT31;68596;52.080;4.662;2024-01-30T01:14:00;10.08;76.73
78315;SHT31;68596;52.080;4.662;2024-01-30T01:16:45;10.06;76.66
78315;SHT31;68596;52.080;4.662;2024-01-30T01:19:29;10.11;76.56
78315;SHT31;68596;52.080;4.662;2024-01-30T01:22:13;10.08;76.51
78315;SHT31;68596;52.080;4.662;2024-01-30T01:24:58;10.08;76.47
78315;SHT31;68596;52.080;4.662;2024-01-30T01:27:42;10.06;76.40
78315;SHT31;68596;52.080;4.662;2024-01-30T01:30:27;10.02;76.37
78315;SHT31;68596;52.080;4.662;2024-01-30T01:33:13;9.99;76.44
78315;SHT31;68596;52.080;4.662;2024-01-30T01:35:58;10.01;76.44
78315;SHT31;68596;52.080;4.662;2024-01-30T01:38:42;10.01;76.42
78315;SHT31;68596;52.080;4.662;2024-01-30T01:41:30;10.01;76.44
78315;SHT31;68596;52.080;4.662;2024-01-30T01:44:15;9.98;76.46
78315;SHT31;68596;52.080;4.662;2024-01-30T01:46:59;9.98;76.55
78315;SHT31;68596;52.080;4.662;2024-01-30T01:49:43;9.95;76.47
78315;SHT31;68596;52.080;4.662;2024-01-30T01:52:28;9.97;76.60
78315;SHT31;68596;52.080;4.662;2024-01-30T01:55:13;9.92;76.81
78315;SHT31;68596;52.080;4.662;2024-01-30T01:57:59;9.94;76.82
78315;SHT31;68596;52.080;4.662;2024-01-30T02:00:43;9.94;76.81
78315;SHT31;68596;52.080;4.662;2024-01-30T02:03:28;9.95;76.83
78315;SHT31;68596;52.080;4.662;2024-01-30T02:06:14;9.99;76.82
78315;SHT31;68596;52.080;4.662;2024-01-30T02:08:58;9.99;76.85
78315;SHT31;68596;52.080;4.662;2024-01-30T02:11:42;9.98;76.80
78315;SHT31;68596;52.080;4.662;2024-01-30T02:14:26;10.01;76.73
78315;SHT31;68596;52.080;4.662;2024-01-30T02:17:11;10.01;76.74
78315;SHT31;68596;52.080;4.662;2024-01-30T02:19:55;10.02;76.74
78315;SHT31;68596;52.080;4.662;2024-01-30T02:22:41;10.06;76.60
78315;SHT31;68596;52.080;4.662;2024-01-30T02:25:36;10.06;76.48
78315;SHT31;68596;52.080;4.662;2024-01-30T02:28:20;10.08;76.53
78315;SHT31;68596;52.080;4.662;2024-01-30T02:31:05;10.06;76.51
78315;SHT31;68596;52.080;4.662;2024-01-30T02:33:49;10.11;76.47
78315;SHT31;68596;52.080;4.662;2024-01-30T02:36:33;10.09;76.49
78315;SHT31;68596;52.080;4.662;2024-01-30T02:39:17;10.12;76.43
78315;SHT31;68596;52.080;4.662;2024-01-30T02:42:01;10.11;76.38
78315;SHT31;68596;52.080;4.662;2024-01-30T02:44:46;10.11;76.37
78315;SHT31;68596;52.080;4.662;2024-01-30T02:47:29;10.08;76.37
78315;SHT31;68596;52.080;4.662;2024-01-30T02:50:14;10.11;76.36
78315;SHT31;68596;52.080;4.662;2024-01-30T02:52:59;10.11;76.34
78315;SHT31;68596;52.080;4.662;2024-01-30T02:55:43;10.09;76.36
78315;SHT31;68596;52.080;4.662;2024-01-30T02:58:27;10.13;76.33
78315;SHT31;68596;52.080;4.662;2024-01-30T03:01:11;10.15;76.34
78315;SHT31;68596;52.080;4.662;2024-01-30T03:03:55;10.15;76.33
78315;SHT31;68596;52.080;4.662;2024-01-30T03:06:45;10.15;76.32
78315;SHT31;68596;52.080;4.662;2024-01-30T03:09:29;10.15;76.42
78315;SHT31;68596;52.080;4.662;2024-01-30T03:12:13;10.16;76.44
78315;SHT31;68596;52.080;4.662;2024-01-30T03:14:58;10.15;76.46
78315;SHT31;68596;52.080;4.662;2024-01-30T03:17:41;10.15;76.47
78315;SHT31;68596;52.080;4.662;2024-01-30T03:20:26;10.15;76.48
78315;SHT31;68596;52.080;4.662;2024-01-30T03:23:11;10.18;76.45
78315;SHT31;68596;52.080;4.662;2024-01-30T03:25:55;10.18;76.46
78315;SHT31;68596;52.080;4.662;2024-01-30T03:28:39;10.21;76.48
78315;SHT31;68596;52.080;4.662;2024-01-30T03:31:23;10.18;76.49
78315;SHT31;68596;52.080;4.662;2024-01-30T03:34:07;10.19;76.49
78315;SHT31;68596;52.080;4.662;2024-01-30T03:36:51;10.19;76.56
78315;SHT31;68596;52.080;4.662;2024-01-30T03:39:35;10.19;76.67
78315;SHT31;68596;52.080;4.662;2024-01-30T03:42:20;10.19;76.76
78315;SHT31;68596;52.080;4.662;2024-01-30T03:45:05;10.19;76.85
78315;SHT31;68596;52.080;4.662;2024-01-30T03:47:49;10.22;76.78
78315;SHT31;68596;52.080;4.662;2024-01-30T03:50:33;10.25;76.68
78315;SHT31;68596;52.080;4.662;2024-01-30T03:53:17;10.25;76.66
78315;SHT31;68596;52.080;4.662;2024-01-30T03:56:01;10.26;76.62
78315;SHT31;68596;52.080;4.662;2024-01-30T03:58:47;10.26;76.60
78315;SHT31;68596;52.080;4.662;2024-01-30T04:01:31;10.28;76.55
78315;SHT31;68596;52.080;4.662;2024-01-30T04:04:15;10.26;76.55
78315;SHT31;68596;52.080;4.662;2024-01-30T04:06:59;10.26;76.51
78315;SHT31;68596;52.080;4.662;2024-01-30T04:09:43;10.26;76.55
78315;SHT31;68596;52.080;4.662;2024-01-30T04:12:27;10.22;76.59
78315;SHT31;68596;52.080;4.662;2024-01-30T04:15:11;10.22;76.56
78315;SHT31;68596;52.080;4.662;2024-01-30T04:17:57;10.25;76.57
78315;SHT31;68596;52.080;4.662;2024-01-30T04:20:43;10.25;76.56
78315;SHT31;68596;52.080;4.662;2024-01-30T04:23:27;10.25;76.60
78315;SHT31;68596;52.080;4.662;2024-01-30T04:26:11;10.23;76.66
78315;SHT31;68596;52.080;4.662;2024-01-30T04:28:55;10.22;76.88
78315;SHT31;68596;52.080;4.662;2024-01-30T04:31:39;10.22;76.85
78315;SHT31;68596;52.080;4.662;2024-01-30T04:34:23;10.22;76.95
78315;SHT31;68596;52.080;4.662;2024-01-30T04:37:07;10.23;76.92
78315;SHT31;68596;52.080;4.662;2024-01-30T04:39:51;10.22;76.84
78315;SHT31;68596;52.080;4.662;2024-01-30T04:42:35;10.26;76.80
78315;SHT31;68596;52.080;4.662;2024-01-30T04:45:19;10.26;76.80
78315;SHT31;68596;52.080;4.662;2024-01-30T04:48:04;10.28;76.87
78315;SHT31;68596;52.080;4.662;2024-01-30T04:50:48;10.25;76.92
78315;SHT31;68596;52.080;4.662;2024-01-30T04:53:32;10.28;76.96
78315;SHT31;68596;52.080;4.662;2024-01-30T04:56:16;10.28;77.02
78315;SHT31;68596;52.080;4.662;2024-01-30T04:59:02;10.29;77.05
78315;SHT31;68596;52.080;4.662;2024-01-30T05:01:46;10.31;77.02
78315;SHT31;68596;52.080;4.662;2024-01-30T05:04:30;10.29;77.10
78315;SHT31;68596;52.080;4.662;2024-01-30T05:07:14;10.33;77.05
78315;SHT31;68596;52.080;4.662;2024-01-30T05:09:58;10.31;77.13
78315;SHT31;68596;52.080;4.662;2024-01-30T05:12:42;10.36;77.10
78315;SHT31;68596;52.080;4.662;2024-01-30T05:15:29;10.35;77.07
78315;SHT31;68596;52.080;4.662;2024-01-30T05:18:13;10.38;77.03
78315;SHT31;68596;52.080;4.662;2024-01-30T05:20:57;10.38;76.99
78315;SHT31;68596;52.080;4.662;2024-01-30T05:23:42;10.41;76.93
78315;SHT31;68596;52.080;4.662;2024-01-30T05:26:26;10.39;76.99
78315;SHT31;68596;52.080;4.662;2024-01-30T05:29:11;10.45;76.94
78315;SHT31;68596;52.080;4.662;2024-01-30T05:31:55;10.48;76.87
78315;SHT31;68596;52.080;4.662;2024-01-30T05:34:40;10.50;76.87
78315;SHT31;68596;52.080;4.662;2024-01-30T05:37:24;10.50;76.82
78315;SHT31;68596;52.080;4.662;2024-01-30T05:40:09;10.55;76.83
78315;SHT31;68596;52.080;4.662;2024-01-30T05:42:53;10.56;76.76
78315;SHT31;68596;52.080;4.662;2024-01-30T05:45:38;10.57;76.76
78315;SHT31;68596;52.080;4.662;2024-01-30T05:48:22;10.60;76.78
78315;SHT31;68596;52.080;4.662;2024-01-30T05:51:07;10.60;76.75
78315;SHT31;68596;52.080;4.662;2024-01-30T05:53:52;10.66;76.70
78315;SHT31;68596;52.080;4.662;2024-01-30T05:56:36;10.66;76.72
78315;SHT31;68596;52.080;4.662;2024-01-30T05:59:20;10.67;76.79
78315;SHT31;68596;52.080;4.662;2024-01-30T06:02:04;10.66;76.85
78315;SHT31;68596;52.080;4.662;2024-01-30T06:04:48;10.67;76.85
78315;SHT31;68596;52.080;4.662;2024-01-30T06:07:32;10.67;76.89
78315;SHT31;68596;52.080;4.662;2024-01-30T06:10:16;10.73;76.87
78315;SHT31;68596;52.080;4.662;2024-01-30T06:13:01;10.73;76.93
78315;SHT31;68596;52.080;4.662;2024-01-30T06:15:45;10.70;77.02
78315;SHT31;68596;52.080;4.662;2024-01-30T06:18:29;10.73;77.18
78315;SHT31;68596;52.080;4.662;2024-01-30T06:21:15;10.74;77.27
78315;SHT31;68596;52.080;4.662;2024-01-30T06:23:59;10.74;77.29
78315;SHT31;68596;52.080;4.662;2024-01-30T06:26:43;10.79;77.33
78315;SHT31;68596;52.080;4.662;2024-01-30T06:29:27;10.83;77.39
78315;SHT31;68596;52.080;4.662;2024-01-30T06:32:11;10.84;77.25
78315;SHT31;68596;52.080;4.662;2024-01-30T06:34:55;10.90;77.18
78315;SHT31;68596;52.080;4.662;2024-01-30T06:37:39;10.90;77.23
78315;SHT31;68596;52.080;4.662;2024-01-30T06:40:23;10.99;77.11
78315;SHT31;68596;52.080;4.662;2024-01-30T06:43:07;10.99;77.05
78315;SHT31;68596;52.080;4.662;2024-01-30T06:45:51;11.01;76.99
78315;SHT31;68596;52.080;4.662;2024-01-30T06:48:35;11.01;76.93
78315;SHT31;68596;52.080;4.662;2024-01-30T06:51:19;11.04;76.90
78315;SHT31;68596;52.080;4.662;2024-01-30T06:54:04;11.04;76.85
78315;SHT31;68596;52.080;4.662;2024-01-30T06:56:48;11.03;76.90
78315;SHT31;68596;52.080;4.662;2024-01-30T06:59:32;11.04;76.98
78315;SHT31;68596;52.080;4.662;2024-01-30T07:02:16;11.07;76.98
78315;SHT31;68596;52.080;4.662;2024-01-30T07:05:01;11.08;77.03
78315;SHT31;68596;52.080;4.662;2024-01-30T07:07:45;11.11;76.99
78315;SHT31;68596;52.080;4.662;2024-01-30T07:10:29;11.15;76.94
78315;SHT31;68596;52.080;4.662;2024-01-30T07:13:13;11.18;76.92
78315;SHT31;68596;52.080;4.662;2024-01-30T07:15:57;11.23;76.73
78315;SHT31;68596;52.080;4.662;2024-01-30T07:18:41;11.25;76.64
78315;SHT31;68596;52.080;4.662;2024-01-30T07:21:25;11.30;76.62
78315;SHT31;68596;52.080;4.662;2024-01-30T07:24:11;11.28;76.62
78315;SHT31;68596;52.080;4.662;2024-01-30T07:26:56;11.24;76.74
78315;SHT31;68596;52.080;4.662;2024-01-30T07:29:41;11.27;76.97
78315;SHT31;68596;52.080;4.662;2024-01-30T07:32:25;11.32;76.88
78315;SHT31;68596;52.080;4.662;2024-01-30T07:35:09;11.34;76.82
78315;SHT31;68596;52.080;4.662;2024-01-30T07:37:53;11.39;76.90
78315;SHT31;68596;52.080;4.662;2024-01-30T07:40:38;11.41;76.98
78315;SHT31;68596;52.080;4.662;2024-01-30T07:43:21;11.44;77.01
78315;SHT31;68596;52.080;4.662;2024-01-30T07:46:06;11.48;77.03
78315;SHT31;68596;52.080;4.662;2024-01-30T07:48:51;11.50;76.98
78315;SHT31;68596;52.080;4.662;2024-01-30T07:51:35;11.52;77.07
78315;SHT31;68596;52.080;4.662;2024-01-30T07:54:19;11.54;77.05
78315;SHT31;68596;52.080;4.662;2024-01-30T07:57:04;11.54;77.20
78315;SHT31;68596;52.080;4.662;2024-01-30T07:59:48;11.50;77.22
78315;SHT31;68596;52.080;4.662;2024-01-30T08:02:33;11.52;77.25
78315;SHT31;68596;52.080;4.662;2024-01-30T08:05:17;11.61;77.41
78315;SHT31;68596;52.080;4.662;2024-01-30T08:08:02;11.64;77.38
78315;SHT31;68596;52.080;4.662;2024-01-30T08:10:46;11.64;77.36
78315;SHT31;68596;52.080;4.662;2024-01-30T08:13:30;11.61;77.49
78315;SHT31;68596;52.080;4.662;2024-01-30T08:16:14;11.64;77.55
78315;SHT31;68596;52.080;4.662;2024-01-30T08:18:58;11.67;77.42
78315;SHT31;68596;52.080;4.662;2024-01-30T08:21:42;11.65;77.45
78315;SHT31;68596;52.080;4.662;2024-01-30T08:24:26;11.69;77.52
78315;SHT31;68596;52.080;4.662;2024-01-30T08:27:11;11.71;77.72
78315;SHT31;68596;52.080;4.662;2024-01-30T08:29:56;11.74;77.65
78315;SHT31;68596;52.080;4.662;2024-01-30T08:32:43;11.74;77.60
78315;SHT31;68596;52.080;4.662;2024-01-30T08:35:27;11.75;77.37
78315;SHT31;68596;52.080;4.662;2024-01-30T08:38:11;11.69;77.54
78315;SHT31;68596;52.080;4.662;2024-01-30T08:40:56;11.72;77.50
78315;SHT31;68596;52.080;4.662;2024-01-30T08:43:41;11.69;77.63
78315;SHT31;68596;52.080;4.662;2024-01-30T08:46:25;11.71;77.60
78315;SHT31;68596;52.080;4.662;2024-01-30T08:49:09;11.69;77.57
78315;SHT31;68596;52.080;4.662;2024-01-30T08:51:53;11.71;77.51
78315;SHT31;68596;52.080;4.662;2024-01-30T08:54:37;11.72;77.48
78315;SHT31;68596;52.080;4.662;2024-01-30T08:57:21;11.74;77.41
78315;SHT31;68596;52.080;4.662;2024-01-30T09:00:06;11.76;77.29
78315;SHT31;68596;52.080;4.662;2024-01-30T09:02:53;11.85;77.01
78315;SHT31;68596;52.080;4.662;2024-01-30T09:05:37;11.79;77.13
78315;SHT31;68596;52.080;4.662;2024-01-30T09:08:21;11.85;77.15
78315;SHT31;68596;52.080;4.662;2024-01-30T09:11:12;11.82;77.06
78315;SHT31;68596;52.080;4.662;2024-01-30T09:13:56;11.86;76.90
78315;SHT31;68596;52.080;4.662;2024-01-30T09:16:41;11.89;76.83
78315;SHT31;68596;52.080;4.662;2024-01-30T09:19:25;11.85;76.72
78315;SHT31;68596;52.080;4.662;2024-01-30T09:22:09;11.85;76.65
78315;SHT31;68596;52.080;4.662;2024-01-30T09:24:53;11.89;76.57
78315;SHT31;68596;52.080;4.662;2024-01-30T09:27:37;11.78;76.26
78315;SHT31;68596;52.080;4.662;2024-01-30T09:30:21;11.72;76.26
78315;SHT31;68596;52.080;4.662;2024-01-30T09:33:06;11.78;76.27
78315;SHT31;68596;52.080;4.662;2024-01-30T09:35:51;11.68;76.13
78315;SHT31;68596;52.080;4.662;2024-01-30T09:38:35;11.69;76.13
78315;SHT31;68596;52.080;4.662;2024-01-30T09:41:19;11.74;75.90
78315;SHT31;68596;52.080;4.662;2024-01-30T09:44:05;11.57;76.39
78315;SHT31;68596;52.080;4.662;2024-01-30T09:46:51;11.62;76.35
78315;SHT31;68596;52.080;4.662;2024-01-30T09:49:36;11.62;76.37
78315;SHT31;68596;52.080;4.662;2024-01-30T09:52:21;11.62;76.34
78315;SHT31;68596;52.080;4.662;2024-01-30T09:55:06;11.64;76.28
78315;SHT31;68596;52.080;4.662;2024-01-30T09:57:53;11.69;76.06
78315;SHT31;68596;52.080;4.662;2024-01-30T10:00:37;11.62;75.99
78315;SHT31;68596;52.080;4.662;2024-01-30T10:03:22;11.69;75.89
78315;SHT31;68596;52.080;4.662;2024-01-30T10:06:06;11.55;76.02
78315;SHT31;68596;52.080;4.662;2024-01-30T10:08:50;11.54;75.86
78315;SHT31;68596;52.080;4.662;2024-01-30T10:11:35;11.59;75.65
78315;SHT31;68596;52.080;4.662;2024-01-30T10:14:20;11.58;75.58
78315;SHT31;68596;52.080;4.662;2024-01-30T10:17:04;11.47;75.73
78315;SHT31;68596;52.080;4.662;2024-01-30T10:19:49;11.30;75.80
78315;SHT31;68596;52.080;4.662;2024-01-30T10:22:35;11.31;75.78
78315;SHT31;68596;52.080;4.662;2024-01-30T10:25:21;11.32;75.80
78315;SHT31;68596;52.080;4.662;2024-01-30T10:28:05;11.24;75.54
78315;SHT31;68596;52.080;4.662;2024-01-30T10:30:58;11.28;75.50
78315;SHT31;68596;52.080;4.662;2024-01-30T10:33:44;11.27;74.81
78315;SHT31;68596;52.080;4.662;2024-01-30T10:36:39;11.24;74.68
78315;SHT31;68596;52.080;4.662;2024-01-30T10:39:27;11.21;74.82
78315;SHT31;68596;52.080;4.662;2024-01-30T10:42:18;11.14;74.73
78315;SHT31;68596;52.080;4.662;2024-01-30T10:45:07;11.11;75.01
78315;SHT31;68596;52.080;4.662;2024-01-30T10:47:54;11.06;75.19
78315;SHT31;68596;52.080;4.662;2024-01-30T10:50:43;11.10;75.51
78315;SHT31;68596;52.080;4.662;2024-01-30T10:53:28;11.08;75.51
78315;SHT31;68596;52.080;4.662;2024-01-30T10:56:13;11.06;75.21
78315;SHT31;68596;52.080;4.662;2024-01-30T10:59:00;10.96;75.93
78315;SHT31;68596;52.080;4.662;2024-01-30T11:01:45;10.87;76.20
78315;SHT31;68596;52.080;4.662;2024-01-30T11:04:41;10.86;76.58
78315;SHT31;68596;52.080;4.662;2024-01-30T11:07:27;10.80;76.70
78315;SHT31;68596;52.080;4.662;2024-01-30T11:10:12;10.81;76.89
78315;SHT31;68596;52.080;4.662;2024-01-30T11:12:59;10.74;77.36
78315;SHT31;68596;52.080;4.662;2024-01-30T11:15:47;10.72;77.36
78315;SHT31;68596;52.080;4.662;2024-01-30T11:18:33;10.76;77.40
78315;SHT31;68596;52.080;4.662;2024-01-30T11:21:19;10.67;77.14
78315;SHT31;68596;52.080;4.662;2024-01-30T11:24:03;10.55;77.23
78315;SHT31;68596;52.080;4.662;2024-01-30T11:26:49;10.46;77.47
78315;SHT31;68596;52.080;4.662;2024-01-30T11:29:35;10.53;77.11
78315;SHT31;68596;52.080;4.662;2024-01-30T11:32:22;10.45;77.06
78315;SHT31;68596;52.080;4.662;2024-01-30T11:35:11;10.43;76.95
78315;SHT31;68596;52.080;4.662;2024-01-30T11:37:57;10.33;77.01
78315;SHT31;68596;52.080;4.662;2024-01-30T11:40:43;10.35;77.17
78315;SHT31;68596;52.080;4.662;2024-01-30T11:43:28;10.46;76.84
78315;SHT31;68596;52.080;4.662;2024-01-30T11:46:12;10.48;76.66
78315;SHT31;68596;52.080;4.662;2024-01-30T11:48:57;10.53;76.18
78315;SHT31;68596;52.080;4.662;2024-01-30T11:51:42;10.38;76.17
78315;SHT31;68596;52.080;4.662;2024-01-30T11:54:26;10.48;75.98
78315;SHT31;68596;52.080;4.662;2024-01-30T11:57:11;10.49;76.04
78315;SHT31;68596;52.080;4.662;2024-01-30T11:59:55;10.56;75.77
78315;SHT31;68596;52.080;4.662;2024-01-30T12:02:40;10.62;75.87
78315;SHT31;68596;52.080;4.662;2024-01-30T12:05:26;10.57;75.81
78315;SHT31;68596;52.080;4.662;2024-01-30T12:08:17;10.67;75.84
78315;SHT31;68596;52.080;4.662;2024-01-30T12:11:01;10.67;75.90
78315;SHT31;68596;52.080;4.662;2024-01-30T12:13:46;10.70;75.89
78315;SHT31;68596;52.080;4.662;2024-01-30T12:16:30;10.62;76.29
78315;SHT31;68596;52.080;4.662;2024-01-30T12:19:24;10.56;76.21
78315;SHT31;68596;52.080;4.662;2024-01-30T12:22:11;10.50;76.56
78315;SHT31;68596;52.080;4.662;2024-01-30T12:24:56;10.46;76.65
78315;SHT31;68596;52.080;4.662;2024-01-30T12:27:44;10.57;76.53
78315;SHT31;68596;52.080;4.662;2024-01-30T12:30:29;10.50;76.87
78315;SHT31;68596;52.080;4.662;2024-01-30T12:33:17;10.50;77.38
78315;SHT31;68596;52.080;4.662;2024-01-30T12:36:04;10.50;77.56
78315;SHT31;68596;52.080;4.662;2024-01-30T12:38:48;10.41;78.32
78315;SHT31;68596;52.080;4.662;2024-01-30T12:41:32;10.42;78.57
78315;SHT31;68596;52.080;4.662;2024-01-30T12:44:17;10.29;79.14
78315;SHT31;68596;52.080;4.662;2024-01-30T12:47:05;10.33;79.19
78315;SHT31;68596;52.080;4.662;2024-01-30T12:49:49;10.29;79.34
78315;SHT31;68596;52.080;4.662;2024-01-30T12:52:36;10.18;79.63
78315;SHT31;68596;52.080;4.662;2024-01-30T12:55:20;10.09;79.89
78315;SHT31;68596;52.080;4.662;2024-01-30T12:58:05;10.02;80.20
78315;SHT31;68596;52.080;4.662;2024-01-30T13:00:49;10.03;80.32
78315;SHT31;68596;52.080;4.662;2024-01-30T13:03:34;9.99;80.48
78315;SHT31;68596;52.080;4.662;2024-01-30T13:06:18;10.01;80.54
78315;SHT31;68596;52.080;4.662;2024-01-30T13:09:02;10.01;80.80
78315;SHT31;68596;52.080;4.662;2024-01-30T13:11:47;9.98;81.06
78315;SHT31;68596;52.080;4.662;2024-01-30T13:14:31;10.05;80.99
78315;SHT31;68596;52.080;4.662;2024-01-30T13:17:15;10.02;81.26
78315;SHT31;68596;52.080;4.662;2024-01-30T13:19:59;9.94;81.58
78315;SHT31;68596;52.080;4.662;2024-01-30T13:22:43;9.94;81.69
78315;SHT31;68596;52.080;4.662;2024-01-30T13:25:27;10.01;81.77
78315;SHT31;68596;52.080;4.662;2024-01-30T13:28:11;9.98;81.92
78315;SHT31;68596;52.080;4.662;2024-01-30T13:30:55;10.02;81.89
78315;SHT31;68596;52.080;4.662;2024-01-30T13:33:39;9.98;81.91
78315;SHT31;68596;52.080;4.662;2024-01-30T13:36:23;9.97;82.02
78315;SHT31;68596;52.080;4.662;2024-01-30T13:39:08;9.98;82.03
78315;SHT31;68596;52.080;4.662;2024-01-30T13:41:55;10.02;81.97
78315;SHT31;68596;52.080;4.662;2024-01-30T13:44:39;9.98;82.01
78315;SHT31;68596;52.080;4.662;2024-01-30T13:47:23;9.88;82.08
78315;SHT31;68596;52.080;4.662;2024-01-30T13:50:07;9.88;82.24
78315;SHT31;68596;52.080;4.662;2024-01-30T13:52:51;9.94;82.13
78315;SHT31;68596;52.080;4.662;2024-01-30T13:55:36;9.91;82.20
78315;SHT31;68596;52.080;4.662;2024-01-30T13:58:20;9.94;82.23
78315;SHT31;68596;52.080;4.662;2024-01-30T14:01:04;9.90;82.22
78315;SHT31;68596;52.080;4.662;2024-01-30T14:03:48;9.91;82.09
78315;SHT31;68596;52.080;4.662;2024-01-30T14:06:32;9.75;82.31
78315;SHT31;68596;52.080;4.662;2024-01-30T14:09:16;9.84;82.20
78315;SHT31;68596;52.080;4.662;2024-01-30T14:12:00;9.91;82.01
78315;SHT31;68596;52.080;4.662;2024-01-30T14:14:44;9.95;81.88
78315;SHT31;68596;52.080;4.662;2024-01-30T14:17:28;9.87;81.84
78315;SHT31;68596;52.080;4.662;2024-01-30T14:20:13;9.84;81.72
78315;SHT31;68596;52.080;4.662;2024-01-30T14:22:57;9.92;81.71
78315;SHT31;68596;52.080;4.662;2024-01-30T14:25:41;9.94;81.71
78315;SHT31;68596;52.080;4.662;2024-01-30T14:28:25;9.90;81.88
78315;SHT31;68596;52.080;4.662;2024-01-30T14:31:09;9.99;81.82
78315;SHT31;68596;52.080;4.662;2024-01-30T14:33:53;10.02;81.63
78315;SHT31;68596;52.080;4.662;2024-01-30T14:36:39;9.99;81.57
78315;SHT31;68596;52.080;4.662;2024-01-30T14:39:25;9.92;81.66
78315;SHT31;68596;52.080;4.662;2024-01-30T14:42:09;9.94;81.74
78315;SHT31;68596;52.080;4.662;2024-01-30T14:44:53;9.98;81.72
78315;SHT31;68596;52.080;4.662;2024-01-30T14:47:37;9.98;81.58
78315;SHT31;68596;52.080;4.662;2024-01-30T14:50:22;9.92;81.73
78315;SHT31;68596;52.080;4.662;2024-01-30T14:53:06;9.97;81.73
78315;SHT31;68596;52.080;4.662;2024-01-30T14:55:50;9.92;81.75
78315;SHT31;68596;52.080;4.662;2024-01-30T14:58:35;9.85;81.96
78315;SHT31;68596;52.080;4.662;2024-01-30T15:01:19;9.94;81.79
78315;SHT31;68596;52.080;4.662;2024-01-30T15:04:03;9.94;81.83
78315;SHT31;68596;52.080;4.662;2024-01-30T15:06:47;10.01;81.69
78315;SHT31;68596;52.080;4.662;2024-01-30T15:09:32;10.05;81.54
78315;SHT31;68596;52.080;4.662;2024-01-30T15:12:16;10.06;81.46
78315;SHT31;68596;52.080;4.662;2024-01-30T15:15:01;10.03;81.32
78315;SHT31;68596;52.080;4.662;2024-01-30T15:17:45;10.03;81.35
78315;SHT31;68596;52.080;4.662;2024-01-30T15:20:29;10.01;81.43
78315;SHT31;68596;52.080;4.662;2024-01-30T15:23:15;10.06;81.34
78315;SHT31;68596;52.080;4.662;2024-01-30T15:25:59;10.09;81.21
78315;SHT31;68596;52.080;4.662;2024-01-30T15:28:43;9.99;81.50
78315;SHT31;68596;52.080;4.662;2024-01-30T15:31:27;10.08;81.30
78315;SHT31;68596;52.080;4.662;2024-01-30T15:34:11;10.08;81.24
78315;SHT31;68596;52.080;4.662;2024-01-30T15:36:55;10.15;81.10
78315;SHT31;68596;52.080;4.662;2024-01-30T15:39:39;10.09;81.12
78315;SHT31;68596;52.080;4.662;2024-01-30T15:42:24;10.15;81.10
78315;SHT31;68596;52.080;4.662;2024-01-30T15:45:08;10.15;81.03
78315;SHT31;68596;52.080;4.662;2024-01-30T15:47:52;10.19;80.99
78315;SHT31;68596;52.080;4.662;2024-01-30T15:50:36;10.21;80.86
78315;SHT31;68596;52.080;4.662;2024-01-30T15:53:21;10.22;80.71
78315;SHT31;68596;52.080;4.662;2024-01-30T15:56:05;10.23;80.63
78315;SHT31;68596;52.080;4.662;2024-01-30T15:58:50;10.25;80.57
78315;SHT31;68596;52.080;4.662;2024-01-30T16:01:36;10.21;80.30
78315;SHT31;68596;52.080;4.662;2024-01-30T16:04:20;10.22;80.31
78315;SHT31;68596;52.080;4.662;2024-01-30T16:07:05;10.21;80.17
78315;SHT31;68596;52.080;4.662;2024-01-30T16:09:49;10.13;80.00
78315;SHT31;68596;52.080;4.662;2024-01-30T16:12:34;10.15;80.06
78315;SHT31;68596;52.080;4.662;2024-01-30T16:15:18;10.09;80.07
78315;SHT31;68596;52.080;4.662;2024-01-30T16:18:02;10.12;80.01
78315;SHT31;68596;52.080;4.662;2024-01-30T16:20:46;10.13;79.94
78315;SHT31;68596;52.080;4.662;2024-01-30T16:23:30;10.12;79.62
78315;SHT31;68596;52.080;4.662;2024-01-30T16:26:15;10.13;79.78
78315;SHT31;68596;52.080;4.662;2024-01-30T16:28:59;10.11;79.85
78315;SHT31;68596;52.080;4.662;2024-01-30T16:31:43;10.09;79.75
78315;SHT31;68596;52.080;4.662;2024-01-30T16:34:27;10.12;79.81
78315;SHT31;68596;52.080;4.662;2024-01-30T16:37:11;10.06;79.80
78315;SHT31;68596;52.080;4.662;2024-01-30T16:39:55;10.11;79.70
78315;SHT31;68596;52.080;4.662;2024-01-30T16:42:39;10.11;79.57
78315;SHT31;68596;52.080;4.662;2024-01-30T16:45:23;10.08;79.56
78315;SHT31;68596;52.080;4.662;2024-01-30T16:48:07;10.08;79.58
78315;SHT31;68596;52.080;4.662;2024-01-30T16:50:54;10.02;79.65
78315;SHT31;68596;52.080;4.662;2024-01-30T16:53:39;9.98;79.66
78315;SHT31;68596;52.080;4.662;2024-01-30T16:56:23;9.94;79.80
78315;SHT31;68596;52.080;4.662;2024-01-30T16:59:07;9.94;79.88
78315;SHT31;68596;52.080;4.662;2024-01-30T17:01:51;9.97;79.71
78315;SHT31;68596;52.080;4.662;2024-01-30T17:04:35;9.95;79.73
78315;SHT31;68596;52.080;4.662;2024-01-30T17:07:19;9.97;79.70
78315;SHT31;68596;52.080;4.662;2024-01-30T17:10:07;9.97;79.51
78315;SHT31;68596;52.080;4.662;2024-01-30T17:12:53;9.98;79.44
78315;SHT31;68596;52.080;4.662;2024-01-30T17:15:37;9.97;79.38
78315;SHT31;68596;52.080;4.662;2024-01-30T17:18:22;9.94;79.48
78315;SHT31;68596;52.080;4.662;2024-01-30T17:21:06;9.95;79.47
78315;SHT31;68596;52.080;4.662;2024-01-30T17:23:50;9.91;79.45